»·PEaware :: PHKIM KIEN-KJAC

PHKIM :: KIEN-KJAC

FLIGHT INFORMATION

Flight Status: Arrived
Operator: Unknown
More flights by this operator :: More flights under this callsign
Pilot: Kim B. (19519)
Aircraft: ROCKWELL 500 SHRIKE COMMANDER
(AC50)
More flights by this aircraft type
Origin: KIEN Pine Ridge
United States
Destination: KJAC Jackson Hole
United States
More flights between these airports :: More routes between these airports
Route: +DDY V298 DNW
File this flight plan on PilotEdge
Remarks:
Altitude:
(Current/Filed)
14,000ft
Speed:
(Current/Filed)
170kts
Departed: 25-Oct-18 04:56 PM
Arrived: 25-Oct-18 07:26 PM
Distance/Time
Traveled:
361nm/2:30
Distance/Time
To Go:
Arrived

Flight Plot

Page will automatically refresh every two minutes.

Flight plan parsing failed; only flown route is shown


Map Options




Map Legend


Flown Route
Filed Route
Departure Airport
Arrival Airport
Navaid (VOR, NDB)
Fix

Horizontal Profiles

Position Reports

Time Latitude Longitude Heading Altitude Ground
Speed
25-Oct-18 16:57 42.948917 -102.721597 260 11972ft 108kts
25-Oct-18 16:58 42.938621 -102.755504 260 13095ft 104kts
25-Oct-18 16:59 42.928238 -102.788985 260 14023ft 110kts
25-Oct-18 17:00 42.915898 -102.837731 260 13981ft 161kts
25-Oct-18 17:01 42.901906 -102.898698 260 13980ft 173kts
25-Oct-18 17:02 42.887881 -102.960684 260 13974ft 169kts
25-Oct-18 17:03 42.874258 -103.021246 260 13975ft 165kts
25-Oct-18 17:04 42.861545 -103.079721 261 13975ft 158kts
25-Oct-18 17:05 42.849381 -103.138537 261 13976ft 164kts
25-Oct-18 17:06 42.837706 -103.198424 261 13976ft 162kts
25-Oct-18 17:07 42.826446 -103.258067 261 13976ft 162kts
25-Oct-18 17:08 42.815234 -103.317638 261 13976ft 162kts
25-Oct-18 17:09 42.805744 -103.368166 261 13976ft 162kts
25-Oct-18 17:10 42.796040 -103.419939 261 13975ft 162kts
25-Oct-18 17:11 42.784961 -103.479198 261 13975ft 162kts
25-Oct-18 17:12 42.773900 -103.538513 261 13975ft 162kts
25-Oct-18 17:13 42.766177 -103.580060 261 13975ft 162kts
25-Oct-18 17:14 42.755178 -103.639443 261 13975ft 162kts
25-Oct-18 17:15 42.744173 -103.698882 261 13979ft 162kts
25-Oct-18 17:16 42.733162 -103.758526 261 13985ft 162kts
25-Oct-18 17:17 42.722165 -103.818202 261 13992ft 162kts
25-Oct-18 17:18 42.711242 -103.877644 261 13999ft 162kts
25-Oct-18 17:19 42.700227 -103.937310 261 14004ft 162kts
25-Oct-18 17:20 42.697674 -103.997449 273 14004ft 159kts
25-Oct-18 17:21 42.695091 -104.057314 271 13993ft 159kts
25-Oct-18 17:22 42.695389 -104.116960 274 13986ft 158kts
25-Oct-18 17:23 42.695072 -104.176552 274 13977ft 158kts
25-Oct-18 17:24 42.694433 -104.236471 273 13965ft 159kts
25-Oct-18 17:25 42.693636 -104.298823 273 14036ft 169kts
25-Oct-18 17:26 42.692564 -104.362936 273 14184ft 169kts
25-Oct-18 17:27 42.691567 -104.426612 273 14322ft 165kts
25-Oct-18 17:28 42.690689 -104.489608 273 14034ft 166kts
25-Oct-18 17:29 42.689593 -104.547227 273 14047ft 159kts
25-Oct-18 17:30 42.688748 -104.599348 273 14058ft 157kts
25-Oct-18 17:31 42.687705 -104.657352 272 14068ft 157kts
25-Oct-18 17:32 42.686619 -104.721745 271 12410ft 203kts
25-Oct-18 17:33 42.686031 -104.745537 271 12550ft 179kts
25-Oct-18 17:34 42.684903 -104.797889 272 12561ft 163kts
25-Oct-18 17:35 42.683731 -104.858517 272 12560ft 158kts
25-Oct-18 17:36 42.682626 -104.915133 276 12950ft 140kts
25-Oct-18 17:37 42.692706 -104.962812 290 13520ft 125kts
25-Oct-18 17:38 42.704962 -105.008912 292 14064ft 141kts
25-Oct-18 17:39 42.719469 -105.061330 294 14052ft 150kts
25-Oct-18 17:40 42.734820 -105.110105 293 14052ft 150kts
25-Oct-18 17:41 42.749726 -105.158205 293 14052ft 150kts
25-Oct-18 17:42 42.766113 -105.210690 293 14051ft 150kts
25-Oct-18 17:43 42.782384 -105.263158 293 14051ft 150kts
25-Oct-18 17:44 42.798646 -105.315645 292 14051ft 150kts
25-Oct-18 17:45 42.814247 -105.365958 293 14051ft 150kts
25-Oct-18 17:46 42.822828 -105.393805 292 14050ft 150kts
25-Oct-18 17:47 42.839009 -105.446184 293 14050ft 150kts
25-Oct-18 17:48 42.855103 -105.498750 292 14050ft 150kts
25-Oct-18 17:49 42.871338 -105.551212 293 14050ft 150kts
25-Oct-18 17:50 42.887176 -105.603284 292 14050ft 150kts
25-Oct-18 17:51 42.903168 -105.655070 291 14052ft 150kts
25-Oct-18 17:52 42.918583 -105.706465 291 14053ft 151kts
25-Oct-18 17:53 42.934582 -105.759275 291 14053ft 152kts
25-Oct-18 17:54 42.950789 -105.812644 291 14053ft 152kts
25-Oct-18 17:55 42.966864 -105.865586 291 14055ft 152kts
25-Oct-18 17:56 42.982991 -105.918778 291 14061ft 152kts
25-Oct-18 17:57 42.998738 -105.972901 287 14067ft 153kts
25-Oct-18 17:58 43.015194 -106.026452 291 14073ft 153kts
25-Oct-18 17:59 43.031815 -106.080881 290 14007ft 157kts
25-Oct-18 18:00 43.048363 -106.135631 290 14006ft 155kts
25-Oct-18 18:01 43.064703 -106.190112 290 14006ft 155kts
25-Oct-18 18:02 43.071988 -106.214501 290 14006ft 155kts
25-Oct-18 18:03 43.087720 -106.269226 288 14006ft 154kts
25-Oct-18 18:04 43.100147 -106.325275 284 14006ft 154kts
25-Oct-18 18:05 43.111709 -106.381781 284 14006ft 154kts
25-Oct-18 18:06 43.122988 -106.438258 284 14006ft 154kts
25-Oct-18 18:07 43.129628 -106.472256 284 14005ft 154kts
25-Oct-18 18:08 43.140772 -106.528878 284 14005ft 154kts
25-Oct-18 18:09 43.151891 -106.585580 284 14005ft 154kts
25-Oct-18 18:10 43.162914 -106.642243 284 14005ft 154kts
25-Oct-18 18:11 43.173816 -106.699017 283 14008ft 154kts
25-Oct-18 18:12 43.184804 -106.756008 283 14008ft 155kts
25-Oct-18 18:13 43.195835 -106.813057 283 14008ft 155kts
25-Oct-18 18:14 43.206819 -106.870215 284 13971ft 154kts
25-Oct-18 18:15 43.217689 -106.926784 285 13971ft 152kts
25-Oct-18 18:16 43.228441 -106.982810 286 13971ft 151kts
25-Oct-18 18:17 43.239044 -107.038178 288 13971ft 150kts
25-Oct-18 18:18 43.249672 -107.093346 288 13971ft 149kts
25-Oct-18 18:19 43.260221 -107.148389 288 13971ft 149kts
25-Oct-18 18:20 43.270659 -107.203404 288 13970ft 149kts
25-Oct-18 18:21 43.280079 -107.253232 288 13970ft 149kts
25-Oct-18 18:22 43.284975 -107.309667 279 13970ft 151kts
25-Oct-18 18:23 43.290265 -107.361725 284 13970ft 149kts
25-Oct-18 18:24 43.298865 -107.417452 287 13970ft 149kts
25-Oct-18 18:25 43.308320 -107.470926 287 13969ft 149kts
25-Oct-18 18:26 43.318404 -107.525257 288 13969ft 148kts
25-Oct-18 18:27 43.328758 -107.580015 288 13970ft 148kts
25-Oct-18 18:28 43.338960 -107.633782 288 13971ft 148kts
25-Oct-18 18:29 43.348813 -107.687171 287 13974ft 149kts
25-Oct-18 18:30 43.359102 -107.742327 287 13972ft 149kts
25-Oct-18 18:31 43.369539 -107.797792 287 13976ft 149kts
25-Oct-18 18:32 43.379944 -107.852986 287 13983ft 149kts
25-Oct-18 18:33 43.390330 -107.908129 287 13989ft 149kts
25-Oct-18 18:34 43.398994 -107.954193 287 13993ft 149kts
25-Oct-18 18:35 43.411039 -108.018427 287 13996ft 149kts
25-Oct-18 18:36 43.419651 -108.064493 287 13997ft 149kts
25-Oct-18 18:37 43.431577 -108.128574 287 13999ft 149kts
25-Oct-18 18:38 43.440131 -108.174750 287 14001ft 149kts
25-Oct-18 18:39 43.450344 -108.229921 288 14005ft 149kts
25-Oct-18 18:40 43.460510 -108.285097 287 14006ft 149kts
25-Oct-18 18:41 43.470650 -108.340270 287 14006ft 148kts
25-Oct-18 18:42 43.481566 -108.394875 289 14005ft 147kts
25-Oct-18 18:43 43.492452 -108.448660 289 14005ft 147kts
25-Oct-18 18:44 43.503204 -108.503108 288 14005ft 147kts
25-Oct-18 18:45 43.513788 -108.557594 288 14005ft 147kts
25-Oct-18 18:46 43.524351 -108.612028 288 14004ft 147kts
25-Oct-18 18:47 43.534779 -108.665838 287 14007ft 147kts
25-Oct-18 18:48 43.543522 -108.721205 282 14008ft 149kts
25-Oct-18 18:49 43.550162 -108.770353 285 14011ft 148kts
25-Oct-18 18:50 43.559056 -108.825903 286 14018ft 148kts
25-Oct-18 18:51 43.568512 -108.881183 287 14028ft 148kts
25-Oct-18 18:52 43.578144 -108.936134 287 14041ft 147kts
25-Oct-18 18:53 43.587870 -108.991037 287 14058ft 147kts
25-Oct-18 18:54 43.597662 -109.046346 286 14077ft 148kts
25-Oct-18 18:55 43.607465 -109.101926 285 14094ft 150kts
25-Oct-18 18:56 43.617366 -109.158228 285 14107ft 152kts
25-Oct-18 18:57 43.627334 -109.215225 284 14116ft 154kts
25-Oct-18 18:58 43.637267 -109.272305 284 14116ft 155kts
25-Oct-18 18:59 43.647320 -109.329843 284 14115ft 155kts
25-Oct-18 19:00 43.657387 -109.387686 284 14115ft 155kts
25-Oct-18 19:01 43.667374 -109.445579 284 14115ft 155kts
25-Oct-18 19:02 43.677396 -109.503536 284 14019ft 161kts
25-Oct-18 19:03 43.687782 -109.563915 284 13940ft 158kts
25-Oct-18 19:04 43.702164 -109.620625 288 13941ft 156kts
25-Oct-18 19:05 43.713892 -109.678370 285 13943ft 156kts
25-Oct-18 19:06 43.724544 -109.736461 284 13943ft 156kts
25-Oct-18 19:07 43.734969 -109.794945 284 13943ft 156kts
25-Oct-18 19:08 43.745264 -109.853450 284 13943ft 156kts
25-Oct-18 19:09 43.755472 -109.911890 284 13943ft 156kts
25-Oct-18 19:10 43.765293 -109.968357 284 13942ft 156kts
25-Oct-18 19:11 43.775434 -110.026895 284 13942ft 156kts
25-Oct-18 19:12 43.785526 -110.085354 284 13942ft 156kts
25-Oct-18 19:13 43.795594 -110.144015 284 13942ft 156kts
25-Oct-18 19:14 43.805571 -110.202308 284 13946ft 156kts
25-Oct-18 19:15 43.815574 -110.261028 284 13960ft 158kts
25-Oct-18 19:16 43.824873 -110.320749 279 13971ft 159kts
25-Oct-18 19:17 43.830469 -110.381608 279 13982ft 159kts
25-Oct-18 19:18 43.836607 -110.446472 278 13186ft 175kts
25-Oct-18 19:19 43.843839 -110.513504 280 12297ft 177kts
25-Oct-18 19:20 43.848567 -110.579954 244 11416ft 181kts
25-Oct-18 19:21 43.802992 -110.608759 204 10554ft 185kts
25-Oct-18 19:22 43.756008 -110.637889 207 9731ft 184kts
25-Oct-18 19:23 43.714855 -110.665682 208 8428ft 148kts
25-Oct-18 19:24 43.686321 -110.685365 209 8307ft 119kts
25-Oct-18 19:25 43.657211 -110.708485 222 7358ft 119kts
25-Oct-18 19:26 43.633474 -110.724877 200 6835ft 95kts
25-Oct-18 19:27 43.612620 -110.735435 195 6425ft 62kts
25-Oct-18 19:28 43.608768 -110.735491 182 6425ft 13kts
25-Oct-18 19:29 43.602702 -110.738421 201 6425ft 27kts
25-Oct-18 19:30 43.599529 -110.739305 260 6425ft 4kts
25-Oct-18 19:31 43.598922 -110.738897 288 6425ft 0kts
25-Oct-18 19:32 43.598922 -110.738897 288 6425ft 0kts
25-Oct-18 19:33 43.598922 -110.738897 288 6425ft 0kts
25-Oct-18 19:34 43.598922 -110.738897 288 6425ft 0kts
25-Oct-18 19:35 43.598922 -110.738897 288 6425ft 0kts
25-Oct-18 19:36 43.598922 -110.738897 288 6425ft 0kts
25-Oct-18 19:37 43.598922 -110.738897 288 6425ft 0kts
25-Oct-18 19:38 43.598922 -110.738897 288 6425ft 0kts
25-Oct-18 19:39 43.598922 -110.738897 288 6425ft 0kts

Navigation Log

Ident Type
Flight plan parsing failed, navigation log unavailable